Time;durP1;ratioP1;P1;durP2;ratioP2;P2;SDS_P1;SDS_P2;PMS_P1;PMS_P2;Temp;Humidity;BMP_temperature;BMP_pressure;BME280_temperature;BME280_humidity;BME280_pressure;Samples;Min_cycle;Max_cycle;Signal;HPM_P1;HPM_P2
2022/10/18 00:00:41;;;;;;;;;;;20.50;99.90;;;;;;5038610;28;20207;-64
2022/10/18 00:03:07;;;;;;;;;;;20.50;99.90;;;;;;5039420;28;19935;-64
2022/10/18 00:05:33;;;;;;;;;;;20.50;99.90;;;;;;5037799;28;19920;-64
2022/10/18 00:07:58;;;;;;;;;;;20.60;99.90;;;;;;5038677;28;20270;-64
2022/10/18 00:10:24;;;;;;;;;;;20.50;99.90;;;;;;5038987;28;20007;-64
2022/10/18 00:12:50;;;;;;;;;;;20.50;99.90;;;;;;5038559;28;20160;-64
2022/10/18 00:15:16;;;;;;;;;;;20.50;99.90;;;;;;5038932;28;19909;-64
2022/10/18 00:17:42;;;;;;;;;;;20.60;99.90;;;;;;5037977;28;20206;-64
2022/10/18 00:20:09;;;;;;;;;;;20.50;99.90;;;;;;5041651;28;19921;-64
2022/10/18 00:22:36;;;;;;;;;;;20.50;99.90;;;;;;5060594;28;19908;-64
2022/10/18 00:25:02;;;;;;;;;;;20.50;99.90;;;;;;5040661;28;19955;-64
2022/10/18 00:27:28;;;;;;;;;;;20.50;99.90;;;;;;5040415;28;19948;-64
2022/10/18 00:29:59;;;;;;;;;;;20.50;99.90;;;;;;5040722;28;19909;-64
2022/10/18 00:32:25;;;;;;;;;;;20.50;99.90;;;;;;5040581;28;19916;-64
2022/10/18 00:34:51;;;;;;;;;;;20.50;99.90;;;;;;5039877;28;20267;-64
2022/10/18 00:37:17;;;;;;;;;;;20.50;99.90;;;;;;5039679;28;19909;-64
2022/10/18 00:39:49;;;;;;;;;;;20.50;99.90;;;;;;5040360;28;19963;-64
2022/10/18 00:42:16;;;;;;;;;;;20.50;99.90;;;;;;5040997;28;19923;-64
2022/10/18 00:44:42;;;;;;;;;;;20.50;99.90;;;;;;5040684;28;19909;-64
2022/10/18 00:47:09;;;;;;;;;;;20.50;99.90;;;;;;5040324;28;19915;-64
2022/10/18 00:49:40;;;;;;;;;;;20.50;99.90;;;;;;5040501;28;20330;-64
2022/10/18 00:52:07;;;;;;;;;;;20.50;99.90;;;;;;5041142;28;19909;-64
2022/10/18 00:54:34;;;;;;;;;;;20.50;99.90;;;;;;5040572;28;19999;-64
2022/10/18 00:56:59;;;;;;;;;;;20.50;99.90;;;;;;5041290;28;19920;-64
2022/10/18 00:59:26;;;;;;;;;;;20.50;99.90;;;;;;5040830;28;19909;-64
2022/10/18 01:01:51;;;;;;;;;;;20.40;99.90;;;;;;5053776;28;19912;-64
2022/10/18 01:04:17;;;;;;;;;;;20.50;99.90;;;;;;5060819;28;20294;-64
2022/10/18 01:06:54;;;;;;;;;;;20.40;99.90;;;;;;5060017;28;20198;-64
2022/10/18 01:09:23;;;;;;;;;;;20.40;99.90;;;;;;5058243;28;20337;-64
2022/10/18 01:11:48;;;;;;;;;;;20.40;99.90;;;;;;5056548;28;19908;-64
2022/10/18 01:14:20;;;;;;;;;;;20.40;99.90;;;;;;5056687;28;19919;-64
2022/10/18 01:16:58;;;;;;;;;;;20.40;99.90;;;;;;5058679;28;20002;-64
2022/10/18 01:19:33;;;;;;;;;;;20.40;99.90;;;;;;5058968;28;20011;-64
2022/10/18 01:22:15;;;;;;;;;;;20.40;99.90;;;;;;5057362;28;20106;-64
2022/10/18 01:24:59;;;;;;;;;;;20.40;99.90;;;;;;5039806;28;19908;-64
2022/10/18 01:27:35;;;;;;;;;;;20.40;99.90;;;;;;5055299;28;19908;-64
2022/10/18 01:30:16;;;;;;;;;;;20.40;99.90;;;;;;5055125;28;19912;-64
2022/10/18 01:32:45;;;;;;;;;;;20.40;99.90;;;;;;5054737;28;20015;-64
2022/10/18 01:35:12;;;;;;;;;;;20.40;99.90;;;;;;5053645;28;19912;-64
2022/10/18 01:37:38;;;;;;;;;;;20.40;99.90;;;;;;5053997;28;19916;-64
2022/10/18 01:40:05;;;;;;;;;;;20.40;99.90;;;;;;5055129;28;20085;-64
2022/10/18 01:42:31;;;;;;;;;;;20.40;99.90;;;;;;5059688;28;19920;-64
2022/10/18 01:44:57;;;;;;;;;;;20.40;99.90;;;;;;5060522;28;19916;-64
2022/10/18 01:47:24;;;;;;;;;;;20.40;99.90;;;;;;5059736;28;19913;-64
2022/10/18 01:49:55;;;;;;;;;;;20.40;99.90;;;;;;5060147;28;20150;-64
2022/10/18 01:52:20;;;;;;;;;;;20.40;99.90;;;;;;5059565;28;20179;-64
2022/10/18 01:54:47;;;;;;;;;;;20.40;99.90;;;;;;5060128;28;19909;-64
2022/10/18 01:57:23;;;;;;;;;;;20.40;99.90;;;;;;5059743;28;19987;-64
2022/10/18 01:59:51;;;;;;;;;;;20.40;99.90;;;;;;5059138;28;20253;-64
2022/10/18 02:02:32;;;;;;;;;;;20.40;99.90;;;;;;5059364;28;19991;-64
2022/10/18 02:05:01;;;;;;;;;;;20.40;99.90;;;;;;5060627;28;20238;-64
2022/10/18 02:07:36;;;;;;;;;;;20.40;99.90;;;;;;5059639;28;19909;-64
2022/10/18 02:10:15;;;;;;;;;;;20.40;99.90;;;;;;5059484;28;19923;-64
2022/10/18 02:12:42;;;;;;;;;;;20.40;99.90;;;;;;5060046;28;19908;-64
2022/10/18 02:15:09;;;;;;;;;;;20.40;99.90;;;;;;5060524;28;19909;-64
2022/10/18 02:17:36;;;;;;;;;;;20.40;99.90;;;;;;5060152;28;19919;-64
2022/10/18 02:20:04;;;;;;;;;;;20.40;99.90;;;;;;5057825;28;19916;-64
2022/10/18 02:22:31;;;;;;;;;;;20.40;99.90;;;;;;5059373;28;19908;-64
2022/10/18 02:24:58;;;;;;;;;;;20.30;99.90;;;;;;5059541;28;20194;-64
2022/10/18 02:27:24;;;;;;;;;;;20.30;99.90;;;;;;5058656;28;20018;-64
2022/10/18 02:29:50;;;;;;;;;;;20.40;99.90;;;;;;5059189;28;19999;-64
2022/10/18 02:32:23;;;;;;;;;;;20.30;99.90;;;;;;5059452;28;20183;-64
2022/10/18 02:34:53;;;;;;;;;;;20.30;99.90;;;;;;5059300;28;19912;-64
2022/10/18 02:37:19;;;;;;;;;;;20.30;99.90;;;;;;5059604;28;20007;-64
2022/10/18 02:39:47;;;;;;;;;;;20.40;99.90;;;;;;5060269;28;20011;-64
2022/10/18 02:42:13;;;;;;;;;;;20.30;99.90;;;;;;5058732;28;19916;-64
2022/10/18 02:44:38;;;;;;;;;;;20.30;99.90;;;;;;5058174;28;19909;-64
2022/10/18 02:47:05;;;;;;;;;;;20.30;99.90;;;;;;5058026;28;19909;-64
2022/10/18 02:49:31;;;;;;;;;;;20.30;99.90;;;;;;5057052;28;19915;-64
2022/10/18 02:51:56;;;;;;;;;;;20.30;99.90;;;;;;5056934;28;20007;-64
2022/10/18 02:54:22;;;;;;;;;;;20.30;99.90;;;;;;5052462;28;20329;-64
2022/10/18 02:56:48;;;;;;;;;;;20.30;99.90;;;;;;5062581;28;20339;-64
2022/10/18 02:59:14;;;;;;;;;;;20.30;99.90;;;;;;5062084;28;20015;-64
2022/10/18 03:01:39;;;;;;;;;;;20.30;99.90;;;;;;5062077;28;19977;-64
2022/10/18 03:04:05;;;;;;;;;;;20.30;99.90;;;;;;5062503;28;19908;-64
2022/10/18 03:06:31;;;;;;;;;;;20.30;99.90;;;;;;5062494;28;19995;-64
2022/10/18 03:08:57;;;;;;;;;;;20.30;99.90;;;;;;5062816;28;19954;-64
2022/10/18 03:11:22;;;;;;;;;;;20.30;99.90;;;;;;5062784;28;19908;-64
2022/10/18 03:13:51;;;;;;;;;;;20.30;99.90;;;;;;5063116;28;19991;-64
2022/10/18 03:16:17;;;;;;;;;;;20.30;99.90;;;;;;5062770;28;19908;-64
2022/10/18 03:18:43;;;;;;;;;;;20.30;99.90;;;;;;5062759;28;19918;-64
2022/10/18 03:21:08;;;;;;;;;;;20.30;99.90;;;;;;5062064;28;20340;-64
2022/10/18 03:23:34;;;;;;;;;;;20.20;99.90;;;;;;5062613;28;19912;-64
2022/10/18 03:25:59;;;;;;;;;;;20.30;99.90;;;;;;5062098;28;19908;-64
2022/10/18 03:28:25;;;;;;;;;;;20.20;99.90;;;;;;5062177;28;19951;-64
2022/10/18 03:30:51;;;;;;;;;;;20.20;99.90;;;;;;5064693;28;20269;-64
2022/10/18 03:33:16;;;;;;;;;;;20.20;99.90;;;;;;5067280;28;19920;-64
2022/10/18 03:35:42;;;;;;;;;;;20.30;99.90;;;;;;5078987;28;19912;-64
2022/10/18 03:38:07;;;;;;;;;;;20.20;99.90;;;;;;5061578;28;19966;-64
2022/10/18 03:40:35;;;;;;;;;;;20.20;99.90;;;;;;5061768;28;19916;-64
2022/10/18 03:43:00;;;;;;;;;;;20.20;99.90;;;;;;5061624;28;19909;-64
2022/10/18 03:45:27;;;;;;;;;;;20.30;99.90;;;;;;5061474;28;19909;-64
2022/10/18 03:47:52;;;;;;;;;;;20.20;99.90;;;;;;5061419;28;20447;-64
2022/10/18 03:50:20;;;;;;;;;;;20.20;99.90;;;;;;5061245;28;19908;-64
2022/10/18 03:52:46;;;;;;;;;;;20.20;99.90;;;;;;5061261;28;20285;-64
2022/10/18 03:55:11;;;;;;;;;;;20.20;99.90;;;;;;5060490;28;19958;-64
2022/10/18 03:57:37;;;;;;;;;;;20.20;99.90;;;;;;5060788;28;19919;-64
2022/10/18 04:00:04;;;;;;;;;;;20.20;99.90;;;;;;5061391;28;20010;-64
2022/10/18 04:02:29;;;;;;;;;;;20.20;99.90;;;;;;5060854;28;19930;-64
2022/10/18 04:04:57;;;;;;;;;;;20.20;99.90;;;;;;5061452;28;20362;-64
2022/10/18 04:07:23;;;;;;;;;;;20.20;99.90;;;;;;5061082;28;20007;-64
2022/10/18 04:09:51;;;;;;;;;;;20.20;99.90;;;;;;5061857;28;20002;-64
2022/10/18 04:12:17;;;;;;;;;;;20.20;99.90;;;;;;5060554;28;20190;-64
2022/10/18 04:14:43;;;;;;;;;;;20.20;99.90;;;;;;5060518;28;19909;-64
2022/10/18 04:17:08;;;;;;;;;;;20.20;99.90;;;;;;5059627;28;19919;-64
2022/10/18 04:19:41;;;;;;;;;;;20.20;99.90;;;;;;5059770;28;19912;-64
2022/10/18 04:22:07;;;;;;;;;;;20.20;99.90;;;;;;5058672;28;19912;-64
2022/10/18 04:24:32;;;;;;;;;;;20.20;99.90;;;;;;5057907;28;20507;-64
2022/10/18 04:26:58;;;;;;;;;;;20.20;99.90;;;;;;5058490;28;19939;-64
2022/10/18 04:29:26;;;;;;;;;;;20.20;99.90;;;;;;5058017;28;19913;-64
2022/10/18 04:31:52;;;;;;;;;;;20.20;99.90;;;;;;5057752;28;20450;-64
2022/10/18 04:34:17;;;;;;;;;;;20.20;99.90;;;;;;5057747;28;19920;-64
2022/10/18 04:36:42;;;;;;;;;;;20.20;99.90;;;;;;5057882;28;19908;-64
2022/10/18 04:39:08;;;;;;;;;;;20.20;99.90;;;;;;5058635;28;19908;-64
2022/10/18 04:41:35;;;;;;;;;;;20.20;99.90;;;;;;5059322;28;19917;-64
2022/10/18 04:44:01;;;;;;;;;;;20.20;99.90;;;;;;5035986;28;20312;-64
2022/10/18 04:46:27;;;;;;;;;;;20.20;99.90;;;;;;5060276;28;20007;-64
2022/10/18 04:48:53;;;;;;;;;;;20.20;99.90;;;;;;5065381;28;19952;-64
2022/10/18 04:51:18;;;;;;;;;;;20.20;99.90;;;;;;5077452;28;20003;-64
2022/10/18 04:53:44;;;;;;;;;;;20.20;99.90;;;;;;5062030;28;19931;-64
2022/10/18 04:56:09;;;;;;;;;;;20.20;99.90;;;;;;5058494;28;19915;-64
2022/10/18 04:58:36;;;;;;;;;;;20.20;99.90;;;;;;5054094;28;19909;-64
2022/10/18 05:01:05;;;;;;;;;;;20.20;99.90;;;;;;5056621;28;19925;-64
2022/10/18 05:03:31;;;;;;;;;;;20.20;99.90;;;;;;5057953;28;19908;-64
2022/10/18 05:05:56;;;;;;;;;;;20.20;99.90;;;;;;5057069;28;19916;-63
2022/10/18 05:08:26;;;;;;;;;;;20.20;99.90;;;;;;5058174;28;19908;-63
2022/10/18 05:10:51;;;;;;;;;;;20.10;99.90;;;;;;5058035;28;19908;-63
2022/10/18 05:13:18;;;;;;;;;;;20.10;99.90;;;;;;5057258;28;19931;-64
2022/10/18 05:15:45;;;;;;;;;;;20.20;99.90;;;;;;5057491;28;20210;-63
2022/10/18 05:18:10;;;;;;;;;;;20.10;99.90;;;;;;5053274;28;19989;-64
2022/10/18 05:20:36;;;;;;;;;;;20.20;99.90;;;;;;5049128;28;20394;-65
2022/10/18 05:23:02;;;;;;;;;;;20.20;99.90;;;;;;5048206;28;19916;-64
2022/10/18 05:25:27;;;;;;;;;;;20.20;99.90;;;;;;5045516;28;19955;-62
2022/10/18 05:27:53;;;;;;;;;;;20.10;99.90;;;;;;5047286;28;20148;-63
2022/10/18 05:30:19;;;;;;;;;;;20.20;99.90;;;;;;5046331;28;20092;-63
2022/10/18 05:32:45;;;;;;;;;;;20.20;99.90;;;;;;5047191;28;20189;-63
2022/10/18 05:35:10;;;;;;;;;;;20.20;99.90;;;;;;5050710;28;20390;-63
2022/10/18 05:37:36;;;;;;;;;;;20.20;99.90;;;;;;5047695;28;19976;-63
2022/10/18 05:40:02;;;;;;;;;;;20.20;99.90;;;;;;5045220;28;20002;-63
2022/10/18 05:42:27;;;;;;;;;;;20.20;99.90;;;;;;5044103;28;19919;-63
2022/10/18 05:44:53;;;;;;;;;;;20.20;99.90;;;;;;5041687;28;19998;-63
2022/10/18 05:47:18;;;;;;;;;;;20.20;99.90;;;;;;5045367;28;19908;-63
2022/10/18 05:49:44;;;;;;;;;;;20.10;99.90;;;;;;5044144;28;20111;-63
2022/10/18 05:52:09;;;;;;;;;;;20.10;99.90;;;;;;5046995;28;19956;-63
2022/10/18 05:54:35;;;;;;;;;;;20.20;99.90;;;;;;5044357;28;20006;-63
2022/10/18 05:57:01;;;;;;;;;;;20.10;99.90;;;;;;5043906;28;20083;-63
2022/10/18 05:59:26;;;;;;;;;;;20.20;99.90;;;;;;5044993;28;19928;-63
2022/10/18 06:01:52;;;;;;;;;;;20.10;99.90;;;;;;5042981;28;19913;-63
2022/10/18 06:04:17;;;;;;;;;;;20.10;99.90;;;;;;5045501;28;19948;-63
2022/10/18 06:06:43;;;;;;;;;;;20.10;99.90;;;;;;5045955;28;19908;-63
2022/10/18 06:09:08;;;;;;;;;;;20.10;99.90;;;;;;5046329;28;20127;-63
2022/10/18 06:11:35;;;;;;;;;;;20.10;99.90;;;;;;5047523;28;20328;-63
2022/10/18 06:14:01;;;;;;;;;;;20.10;99.90;;;;;;5049004;28;19908;-63
2022/10/18 06:16:27;;;;;;;;;;;20.20;99.90;;;;;;5046413;28;19923;-63
2022/10/18 06:18:53;;;;;;;;;;;20.20;99.90;;;;;;5047107;28;19908;-63
2022/10/18 06:21:19;;;;;;;;;;;20.20;99.90;;;;;;5048174;28;19913;-63
2022/10/18 06:23:48;;;;;;;;;;;20.20;99.90;;;;;;5050477;28;20035;-63
2022/10/18 06:26:14;;;;;;;;;;;20.20;99.90;;;;;;5051057;28;19916;-64
2022/10/18 06:28:39;;;;;;;;;;;20.10;99.90;;;;;;5053641;28;20071;-63
2022/10/18 06:31:05;;;;;;;;;;;20.10;99.90;;;;;;5052778;28;19920;-63
2022/10/18 06:33:31;;;;;;;;;;;20.20;99.90;;;;;;5052106;28;19920;-63
2022/10/18 06:35:58;;;;;;;;;;;20.10;99.90;;;;;;5050714;28;19989;-64
2022/10/18 06:38:23;;;;;;;;;;;20.20;99.90;;;;;;5050944;28;19908;-63
2022/10/18 06:40:49;;;;;;;;;;;20.20;99.90;;;;;;5049440;28;19912;-64
2022/10/18 06:43:15;;;;;;;;;;;20.10;99.90;;;;;;5050124;28;20132;-63
2022/10/18 06:45:40;;;;;;;;;;;20.20;99.90;;;;;;5048849;28;20151;-64
2022/10/18 06:48:06;;;;;;;;;;;20.20;99.90;;;;;;5052048;28;19951;-63
2022/10/18 06:50:32;;;;;;;;;;;20.10;99.90;;;;;;5050897;28;19927;-64
2022/10/18 06:52:57;;;;;;;;;;;20.20;99.90;;;;;;5050278;28;19923;-64
2022/10/18 06:55:23;;;;;;;;;;;20.20;99.90;;;;;;5050407;28;19916;-64
2022/10/18 06:57:48;;;;;;;;;;;20.20;99.90;;;;;;5049402;28;19909;-64
2022/10/18 07:00:14;;;;;;;;;;;20.20;99.90;;;;;;5048427;28;19931;-63
2022/10/18 07:02:40;;;;;;;;;;;20.20;99.90;;;;;;5047543;28;20012;-64
2022/10/18 07:05:06;;;;;;;;;;;20.20;99.90;;;;;;5049758;28;20175;-63
2022/10/18 07:07:32;;;;;;;;;;;20.20;99.90;;;;;;5050804;28;19935;-64
2022/10/18 07:09:57;;;;;;;;;;;20.20;99.90;;;;;;5051756;28;19909;-63
2022/10/18 07:12:23;;;;;;;;;;;20.20;99.90;;;;;;5050254;28;20443;-63
2022/10/18 07:14:48;;;;;;;;;;;20.20;99.90;;;;;;5051372;28;19908;-64
2022/10/18 07:17:14;;;;;;;;;;;20.20;99.90;;;;;;5052263;28;20009;-64
2022/10/18 07:19:40;;;;;;;;;;;20.20;99.90;;;;;;5069279;28;19909;-64
2022/10/18 07:22:05;;;;;;;;;;;20.20;99.90;;;;;;5051487;28;19923;-64
2022/10/18 07:24:31;;;;;;;;;;;20.20;99.90;;;;;;5051862;28;19908;-64
2022/10/18 07:26:57;;;;;;;;;;;20.20;99.90;;;;;;5052206;28;19917;-63
2022/10/18 07:29:22;;;;;;;;;;;20.20;99.90;;;;;;5051769;28;19916;-63
2022/10/18 07:31:48;;;;;;;;;;;20.20;99.90;;;;;;5053640;28;19912;-64
2022/10/18 07:34:14;;;;;;;;;;;20.20;99.90;;;;;;5052929;28;19948;-63
2022/10/18 07:36:39;;;;;;;;;;;20.20;99.90;;;;;;5052098;28;19931;-63
2022/10/18 07:39:05;;;;;;;;;;;20.20;99.90;;;;;;5050268;28;19916;-63
2022/10/18 07:41:34;;;;;;;;;;;20.20;99.90;;;;;;5051980;28;20069;-64
2022/10/18 07:44:00;;;;;;;;;;;20.20;99.90;;;;;;5050279;28;19908;-63
2022/10/18 07:46:26;;;;;;;;;;;20.20;99.90;;;;;;5050193;28;20402;-64
2022/10/18 07:48:51;;;;;;;;;;;20.20;99.90;;;;;;5050764;28;20286;-63
2022/10/18 07:51:20;;;;;;;;;;;20.20;99.90;;;;;;5050050;28;20261;-63
2022/10/18 07:53:46;;;;;;;;;;;20.20;99.90;;;;;;5048087;28;19986;-64
2022/10/18 07:56:15;;;;;;;;;;;20.20;99.90;;;;;;5049919;28;19905;-64
2022/10/18 07:58:45;;;;;;;;;;;20.30;99.90;;;;;;5051732;28;20256;-63
2022/10/18 08:01:10;;;;;;;;;;;20.30;99.90;;;;;;5050243;28;20266;-64
2022/10/18 08:03:37;;;;;;;;;;;20.30;99.90;;;;;;5048154;28;19913;-64
2022/10/18 08:06:03;;;;;;;;;;;20.30;99.90;;;;;;5048586;28;19909;-63
2022/10/18 08:08:29;;;;;;;;;;;20.30;99.90;;;;;;5048151;28;20284;-63
2022/10/18 08:11:00;;;;;;;;;;;20.40;99.90;;;;;;5049706;28;19909;-63
2022/10/18 08:13:26;;;;;;;;;;;20.40;99.90;;;;;;5047313;28;19909;-64
2022/10/18 08:15:57;;;;;;;;;;;20.40;99.90;;;;;;5045474;28;20058;-63
2022/10/18 08:18:23;;;;;;;;;;;20.40;99.90;;;;;;5047839;28;20327;-63
2022/10/18 08:20:49;;;;;;;;;;;20.40;99.90;;;;;;5047104;28;19913;-64
2022/10/18 08:23:14;;;;;;;;;;;20.40;99.90;;;;;;5046148;28;20373;-64
2022/10/18 08:25:40;;;;;;;;;;;20.40;99.90;;;;;;5045344;28;20347;-63
2022/10/18 08:28:06;;;;;;;;;;;20.40;99.90;;;;;;5046928;28;20457;-63
2022/10/18 08:30:32;;;;;;;;;;;20.40;99.90;;;;;;5048108;28;19919;-64
2022/10/18 08:32:58;;;;;;;;;;;20.40;99.90;;;;;;5047948;28;20164;-64
2022/10/18 08:35:23;;;;;;;;;;;20.40;99.90;;;;;;5048395;28;20379;-63
2022/10/18 08:37:50;;;;;;;;;;;20.40;99.90;;;;;;5047421;28;19908;-64
2022/10/18 08:40:16;;;;;;;;;;;20.40;99.90;;;;;;5046545;28;19923;-63
2022/10/18 08:43:00;;;;;;;;;;;20.40;99.90;;;;;;5048511;28;20193;-63
2022/10/18 08:45:26;;;;;;;;;;;20.40;99.90;;;;;;5047384;28;20015;-63
2022/10/18 08:47:55;;;;;;;;;;;20.40;99.90;;;;;;5047124;28;19916;-64
2022/10/18 08:50:25;;;;;;;;;;;20.40;99.90;;;;;;5049722;28;20029;-64
2022/10/18 08:52:57;;;;;;;;;;;20.40;99.90;;;;;;5051301;28;19948;-63
2022/10/18 08:55:25;;;;;;;;;;;20.40;99.90;;;;;;5049010;28;19948;-64
2022/10/18 08:57:51;;;;;;;;;;;20.40;99.90;;;;;;5048858;28;20193;-64
2022/10/18 09:00:18;;;;;;;;;;;20.40;99.90;;;;;;5062811;28;19960;-63
2022/10/18 09:02:52;;;;;;;;;;;20.40;99.90;;;;;;5047926;28;19912;-64
2022/10/18 09:05:51;;;;;;;;;;;20.40;99.90;;;;;;5048011;28;20051;-63
2022/10/18 09:08:19;;;;;;;;;;;20.40;99.90;;;;;;4997192;28;19909;-63
2022/10/18 09:10:54;;;;;;;;;;;20.40;99.90;;;;;;5052007;28;20008;-63
2022/10/18 09:13:39;;;;;;;;;;;20.40;99.90;;;;;;5051141;28;19916;-63
2022/10/18 09:16:12;;;;;;;;;;;20.40;99.90;;;;;;5051807;28;19908;-64
2022/10/18 09:18:37;;;;;;;;;;;20.40;99.90;;;;;;5050007;28;19908;-64
2022/10/18 09:21:06;;;;;;;;;;;20.40;99.90;;;;;;5048678;28;19977;-63
2022/10/18 09:23:45;;;;;;;;;;;20.40;99.90;;;;;;5049597;28;19995;-64
2022/10/18 09:26:23;;;;;;;;;;;20.40;99.90;;;;;;5050990;28;19909;-63
2022/10/18 09:28:52;;;;;;;;;;;20.40;99.90;;;;;;5053994;28;20272;-63
2022/10/18 09:31:21;;;;;;;;;;;20.40;99.90;;;;;;5053176;28;19920;-63
2022/10/18 09:33:52;;;;;;;;;;;20.40;99.90;;;;;;5052563;28;19924;-63
2022/10/18 09:36:22;;;;;;;;;;;20.40;99.90;;;;;;5050462;28;19908;-63
2022/10/18 09:38:50;;;;;;;;;;;20.40;99.90;;;;;;5046703;28;20274;-64
2022/10/18 09:41:20;;;;;;;;;;;20.50;99.90;;;;;;5049382;28;19916;-64
2022/10/18 09:43:57;;;;;;;;;;;20.40;99.90;;;;;;5049443;28;19908;-63
2022/10/18 09:46:26;;;;;;;;;;;20.50;99.90;;;;;;5047653;28;19919;-63
2022/10/18 09:48:57;;;;;;;;;;;20.50;99.90;;;;;;5047117;28;19927;-63
2022/10/18 09:51:25;;;;;;;;;;;20.50;99.90;;;;;;5046605;28;19916;-63
2022/10/18 09:53:53;;;;;;;;;;;20.50;99.90;;;;;;5047764;28;19958;-63
2022/10/18 09:56:25;;;;;;;;;;;20.50;99.90;;;;;;5046361;28;20279;-63
2022/10/18 09:58:50;;;;;;;;;;;20.60;99.90;;;;;;5046812;28;20106;-63
2022/10/18 10:01:24;;;;;;;;;;;20.60;99.90;;;;;;5050208;28;19916;-63
2022/10/18 10:03:50;;;;;;;;;;;20.60;99.90;;;;;;5053177;28;20179;-63
2022/10/18 10:06:25;;;;;;;;;;;20.70;99.90;;;;;;5050779;28;20224;-64
2022/10/18 10:08:59;;;;;;;;;;;20.80;99.90;;;;;;5049611;28;19909;-63
2022/10/18 10:11:25;;;;;;;;;;;20.90;99.90;;;;;;5052347;28;20006;-64
2022/10/18 10:13:51;;;;;;;;;;;20.90;99.90;;;;;;5050380;28;19909;-64
2022/10/18 10:16:17;;;;;;;;;;;21.00;99.90;;;;;;5051361;28;19909;-63
2022/10/18 10:18:42;;;;;;;;;;;21.00;99.90;;;;;;5051255;28;20109;-64
2022/10/18 10:21:17;;;;;;;;;;;21.20;99.90;;;;;;5051589;28;20186;-64
2022/10/18 10:23:43;;;;;;;;;;;21.20;99.90;;;;;;5050517;28;20237;-63
2022/10/18 10:26:22;;;;;;;;;;;21.30;99.90;;;;;;5048969;28;19908;-64
2022/10/18 10:28:48;;;;;;;;;;;21.40;99.90;;;;;;5051953;28;20007;-64
2022/10/18 10:31:23;;;;;;;;;;;21.50;99.90;;;;;;5050206;28;20106;-64
2022/10/18 10:34:07;;;;;;;;;;;21.50;99.90;;;;;;5050942;28;19916;-64
2022/10/18 10:36:33;;;;;;;;;;;21.50;99.90;;;;;;5053260;28;19917;-62
2022/10/18 10:39:04;;;;;;;;;;;21.50;99.90;;;;;;5053208;28;19951;-64
2022/10/18 10:41:30;;;;;;;;;;;21.40;99.90;;;;;;5051322;28;20119;-64
2022/10/18 10:43:55;;;;;;;;;;;21.40;99.90;;;;;;5050763;28;20037;-64
2022/10/18 10:46:22;;;;;;;;;;;21.50;99.90;;;;;;5049776;28;19908;-64
2022/10/18 10:48:50;;;;;;;;;;;21.60;99.90;;;;;;5048592;28;19915;-64
2022/10/18 10:51:26;;;;;;;;;;;21.70;99.90;;;;;;5049100;28;19909;-64
2022/10/18 10:54:15;;;;;;;;;;;21.70;99.90;;;;;;5048398;28;19908;-64
2022/10/18 10:56:53;;;;;;;;;;;21.70;99.90;;;;;;5033986;28;19979;-64
2022/10/18 10:59:19;;;;;;;;;;;21.60;99.90;;;;;;5047764;28;20444;-64
2022/10/18 11:01:50;;;;;;;;;;;21.70;99.90;;;;;;5047373;28;19916;-64
2022/10/18 11:04:26;;;;;;;;;;;21.80;99.90;;;;;;5047212;28;19908;-64
2022/10/18 11:07:11;;;;;;;;;;;21.90;99.90;;;;;;5045683;28;19908;-64
2022/10/18 11:09:41;;;;;;;;;;;21.90;99.90;;;;;;5045176;28;19908;-64
2022/10/18 11:12:17;;;;;;;;;;;21.80;99.90;;;;;;5045012;28;20011;-64
2022/10/18 11:14:45;;;;;;;;;;;21.70;99.90;;;;;;5044207;28;20010;-64
2022/10/18 11:17:31;;;;;;;;;;;21.70;99.90;;;;;;5060343;28;19918;-64
2022/10/18 11:20:09;;;;;;;;;;;21.70;99.90;;;;;;5045504;28;20106;-64
2022/10/18 11:22:42;;;;;;;;;;;21.80;99.90;;;;;;5047066;28;20023;-63
2022/10/18 11:25:11;;;;;;;;;;;21.80;99.90;;;;;;5049623;28;20081;-64
2022/10/18 11:27:45;;;;;;;;;;;21.90;99.90;;;;;;5051994;28;19917;-64
2022/10/18 11:30:17;;;;;;;;;;;21.90;99.90;;;;;;5051560;28;19958;-64
2022/10/18 11:32:55;;;;;;;;;;;21.90;99.90;;;;;;5050157;28;20300;-63
2022/10/18 11:35:39;;;;;;;;;;;21.80;99.90;;;;;;5049645;28;20155;-64
2022/10/18 11:38:14;;;;;;;;;;;21.80;99.90;;;;;;5048784;28;19913;-64
2022/10/18 11:40:58;;;;;;;;;;;21.80;99.90;;;;;;5048378;28;20327;-64
2022/10/18 11:43:43;;;;;;;;;;;21.90;99.90;;;;;;5047654;28;19916;-64
2022/10/18 11:46:18;;;;;;;;;;;22.00;99.90;;;;;;5046282;28;20346;-64
2022/10/18 11:48:55;;;;;;;;;;;22.00;99.90;;;;;;5050164;28;19915;-63
2022/10/18 11:51:40;;;;;;;;;;;21.90;99.90;;;;;;5049125;28;19909;-65
2022/10/18 11:54:29;;;;;;;;;;;21.90;99.90;;;;;;5051786;28;19986;-64
2022/10/18 11:57:00;;;;;;;;;;;21.90;99.90;;;;;;5038096;28;19909;-64
2022/10/18 11:59:38;;;;;;;;;;;21.90;99.90;;;;;;5050898;28;19977;-64
2022/10/18 12:02:09;;;;;;;;;;;21.90;99.90;;;;;;5048986;28;19912;-64
2022/10/18 12:04:37;;;;;;;;;;;21.90;99.90;;;;;;5049707;28;19917;-64
2022/10/18 12:07:06;;;;;;;;;;;21.90;99.90;;;;;;5050083;28;20183;-64
2022/10/18 12:09:35;;;;;;;;;;;21.90;99.90;;;;;;5051081;28;20364;-64
2022/10/18 12:12:05;;;;;;;;;;;21.90;99.90;;;;;;5046678;28;20224;-64
2022/10/18 12:14:41;;;;;;;;;;;21.90;99.90;;;;;;5046835;28;20298;-64
2022/10/18 12:17:11;;;;;;;;;;;21.90;99.90;;;;;;5048315;28;20391;-63
2022/10/18 12:19:37;;;;;;;;;;;21.90;99.90;;;;;;5047259;28;19912;-64
2022/10/18 12:22:14;;;;;;;;;;;21.90;99.90;;;;;;5049400;28;20009;-64
2022/10/18 12:24:40;;;;;;;;;;;21.90;99.90;;;;;;5049396;28;19923;-64
2022/10/18 12:27:10;;;;;;;;;;;21.90;99.90;;;;;;5049511;28;19912;-64
2022/10/18 12:29:40;;;;;;;;;;;21.90;99.90;;;;;;5048250;28;20074;-64
2022/10/18 12:32:13;;;;;;;;;;;22.00;99.90;;;;;;5048717;28;20160;-64
2022/10/18 12:34:47;;;;;;;;;;;21.90;99.90;;;;;;5048008;28;20006;-64
2022/10/18 12:37:25;;;;;;;;;;;21.90;99.90;;;;;;5049231;28;20258;-64
2022/10/18 12:39:59;;;;;;;;;;;21.90;99.90;;;;;;5051342;28;19908;-64
2022/10/18 12:42:29;;;;;;;;;;;21.90;99.90;;;;;;5049524;28;19920;-63
2022/10/18 12:45:14;;;;;;;;;;;21.90;99.90;;;;;;5050400;28;19908;-64
2022/10/18 12:47:39;;;;;;;;;;;21.90;99.90;;;;;;5049965;28;19920;-64
2022/10/18 12:50:21;;;;;;;;;;;21.90;99.90;;;;;;5045909;28;20178;-64
2022/10/18 12:53:00;;;;;;;;;;;21.90;99.90;;;;;;5047552;28;20190;-64
2022/10/18 12:55:28;;;;;;;;;;;22.00;99.90;;;;;;5047974;28;19962;-64
2022/10/18 12:57:57;;;;;;;;;;;22.00;99.90;;;;;;5047526;28;19908;-64
2022/10/18 13:00:28;;;;;;;;;;;22.00;99.90;;;;;;5047762;28;20016;-64
2022/10/18 13:03:16;;;;;;;;;;;22.00;99.90;;;;;;5047640;28;20123;-64
2022/10/18 13:05:51;;;;;;;;;;;22.00;99.90;;;;;;5045214;28;20250;-64
2022/10/18 13:08:29;;;;;;;;;;;22.00;99.90;;;;;;5045555;28;20085;-64
2022/10/18 13:11:01;;;;;;;;;;;21.90;99.90;;;;;;5047132;28;19991;-64
2022/10/18 13:13:37;;;;;;;;;;;21.90;99.90;;;;;;5046177;28;19908;-63
2022/10/18 13:16:06;;;;;;;;;;;21.90;99.90;;;;;;5047160;28;19908;-63
2022/10/18 13:18:38;;;;;;;;;;;21.90;99.90;;;;;;5046706;28;19909;-63
2022/10/18 13:21:22;;;;;;;;;;;21.90;99.90;;;;;;5047195;28;19913;-64
2022/10/18 13:24:00;;;;;;;;;;;21.90;99.90;;;;;;5047977;28;20077;-64
2022/10/18 13:26:26;;;;;;;;;;;21.90;99.90;;;;;;5048893;28;20205;-64
2022/10/18 13:29:03;;;;;;;;;;;21.90;99.90;;;;;;5052543;28;20422;-64
2022/10/18 13:31:29;;;;;;;;;;;21.90;99.90;;;;;;5030398;28;19940;-64
2022/10/18 13:33:54;;;;;;;;;;;21.90;99.90;;;;;;5029386;28;20377;-64
2022/10/18 13:36:24;;;;;;;;;;;21.90;99.90;;;;;;5029815;28;20394;-63
2022/10/18 13:38:56;;;;;;;;;;;21.90;99.90;;;;;;5033633;28;19909;-64
2022/10/18 13:41:49;;;;;;;;;;;21.90;99.90;;;;;;5032790;28;20175;-64
2022/10/18 13:44:17;;;;;;;;;;;21.90;99.90;;;;;;5049472;28;19919;-64
2022/10/18 13:46:43;;;;;;;;;;;21.90;99.90;;;;;;5056448;28;20003;-64
2022/10/18 13:49:21;;;;;;;;;;;21.80;99.90;;;;;;5056344;28;20053;-63
2022/10/18 13:51:46;;;;;;;;;;;21.80;99.90;;;;;;5050694;28;20165;-66
2022/10/18 13:54:31;;;;;;;;;;;21.80;99.90;;;;;;5050811;28;20400;-65
2022/10/18 13:56:59;;;;;;;;;;;21.80;99.90;;;;;;5049888;28;20227;-64
2022/10/18 13:59:37;;;;;;;;;;;21.80;99.90;;;;;;5051497;28;20182;-65
2022/10/18 14:02:17;;;;;;;;;;;21.80;99.90;;;;;;5049808;28;20269;-64
2022/10/18 14:04:43;;;;;;;;;;;21.80;99.90;;;;;;5048698;28;19909;-64
2022/10/18 14:07:10;;;;;;;;;;;21.80;99.90;;;;;;5048084;28;19909;-64
2022/10/18 14:09:50;;;;;;;;;;;21.80;99.90;;;;;;5049959;28;20129;-64
2022/10/18 14:12:25;;;;;;;;;;;21.70;99.90;;;;;;5049240;28;20049;-64
2022/10/18 14:14:56;;;;;;;;;;;21.70;99.90;;;;;;5048324;28;20057;-64
2022/10/18 14:17:25;;;;;;;;;;;21.70;99.90;;;;;;5048166;28;19948;-63
2022/10/18 14:19:54;;;;;;;;;;;21.70;99.90;;;;;;5066586;28;19909;-64
2022/10/18 14:22:39;;;;;;;;;;;21.70;99.90;;;;;;5048550;28;20121;-63
2022/10/18 14:25:17;;;;;;;;;;;21.70;99.90;;;;;;5050234;28;19909;-64
2022/10/18 14:27:42;;;;;;;;;;;21.60;99.90;;;;;;5052145;28;19908;-63